createdAt,value
2023-05-15T00:00:55.398Z,0
2023-05-15T00:01:57.126Z,0
2023-05-15T00:02:58.992Z,0
2023-05-15T00:04:00.434Z,0
2023-05-15T00:05:02.198Z,0
2023-05-15T00:06:03.921Z,0
2023-05-15T00:07:05.452Z,0
2023-05-15T00:08:06.913Z,0
2023-05-15T00:09:08.360Z,0
2023-05-15T00:10:09.994Z,0
2023-05-15T00:11:11.461Z,0
2023-05-15T00:12:12.349Z,0
2023-05-15T00:13:13.938Z,0
2023-05-15T00:14:15.432Z,0
2023-05-15T00:15:48.013Z,0
2023-05-15T00:16:50.002Z,0
2023-05-15T00:17:52.058Z,0
2023-05-15T00:18:54.044Z,0
2023-05-15T00:19:55.405Z,0
2023-05-15T00:20:56.898Z,0
2023-05-15T00:21:58.458Z,0
2023-05-15T00:22:59.954Z,0
2023-05-15T00:24:01.473Z,0
2023-05-15T00:25:02.977Z,0
2023-05-15T00:26:04.959Z,0
2023-05-15T00:27:06.390Z,0
2023-05-15T00:28:07.966Z,0
2023-05-15T00:29:09.462Z,0
2023-05-15T00:30:10.913Z,0
2023-05-15T00:31:12.546Z,0
2023-05-15T00:32:14.463Z,0
2023-05-15T00:33:15.974Z,0
2023-05-15T00:34:48.445Z,0
2023-05-15T00:35:50.068Z,0
2023-05-15T00:36:51.088Z,0
2023-05-15T00:37:53.164Z,0
2023-05-15T00:38:54.965Z,0
2023-05-15T00:39:56.455Z,0
2023-05-15T00:40:58.535Z,0
2023-05-15T00:42:02.111Z,0
2023-05-15T00:43:02.613Z,0
2023-05-15T00:44:04.521Z,0
2023-05-15T00:45:06.060Z,0
2023-05-15T00:46:08.020Z,0
2023-05-15T00:47:10.093Z,0
2023-05-15T00:48:11.976Z,0
2023-05-15T00:49:13.952Z,0
2023-05-15T00:50:16.010Z,0
2023-05-15T00:51:47.958Z,0
2023-05-15T00:52:49.205Z,0
2023-05-15T00:53:50.279Z,0
2023-05-15T00:54:51.990Z,0
2023-05-15T00:55:53.533Z,0
2023-05-15T00:56:55.786Z,0
2023-05-15T00:57:57.598Z,0
2023-05-15T00:58:59.466Z,0
2023-05-15T01:00:00.902Z,0
2023-05-15T01:01:02.537Z,0
2023-05-15T01:02:04.146Z,0
2023-05-15T01:03:05.258Z,0
2023-05-15T01:04:07.444Z,0
2023-05-15T01:05:09.053Z,0
2023-05-15T01:06:11.421Z,0
2023-05-15T01:07:12.921Z,0
2023-05-15T01:08:13.976Z,0
2023-05-15T01:09:15.882Z,0
2023-05-15T01:10:48.952Z,0
2023-05-15T01:11:50.493Z,0
2023-05-15T01:12:51.957Z,0
2023-05-15T01:13:53.530Z,0
2023-05-15T01:14:54.630Z,0
2023-05-15T01:15:56.619Z,0
2023-05-15T01:16:58.357Z,0
2023-05-15T01:18:00.056Z,0
2023-05-15T01:19:02.109Z,0
2023-05-15T01:20:03.125Z,0
2023-05-15T01:21:04.924Z,0
2023-05-15T01:22:06.409Z,0
2023-05-15T01:23:08.002Z,0
2023-05-15T01:24:10.070Z,0
2023-05-15T01:25:11.949Z,0
2023-05-15T01:26:13.777Z,0
2023-05-15T01:27:15.503Z,0
2023-05-15T01:28:47.508Z,0
2023-05-15T01:29:49.595Z,0
2023-05-15T01:30:51.521Z,0
2023-05-15T01:31:53.593Z,0
2023-05-15T01:32:55.605Z,0
2023-05-15T01:33:57.530Z,0
2023-05-15T01:34:59.518Z,0
2023-05-15T01:36:01.543Z,0
2023-05-15T01:37:02.756Z,0
2023-05-15T01:38:04.411Z,0
2023-05-15T01:39:05.959Z,0
2023-05-15T01:40:07.545Z,0
2023-05-15T01:41:09.767Z,0
2023-05-15T01:42:10.806Z,0
2023-05-15T01:43:12.465Z,0
2023-05-15T01:44:14.441Z,0
2023-05-15T01:45:47.138Z,0
2023-05-15T01:46:49.083Z,0
2023-05-15T01:47:51.045Z,0
2023-05-15T01:48:51.913Z,0
2023-05-15T01:49:53.444Z,0
2023-05-15T01:50:55.169Z,0
2023-05-15T01:51:56.983Z,0
2023-05-15T01:52:58.526Z,0
2023-05-15T01:53:59.529Z,0
2023-05-15T01:55:01.609Z,0
2023-05-15T01:56:03.648Z,0
2023-05-15T01:57:06.495Z,0
2023-05-15T01:58:08.547Z,0
2023-05-15T01:59:10.504Z,0
2023-05-15T02:00:11.946Z,0
2023-05-15T02:01:13.852Z,0
2023-05-15T02:02:16.043Z,0
2023-05-15T02:03:48.521Z,0
2023-05-15T02:04:49.899Z,0
2023-05-15T02:05:51.408Z,0
2023-05-15T02:06:53.100Z,0
2023-05-15T02:07:55.004Z,0
2023-05-15T02:08:56.984Z,0
2023-05-15T02:09:58.484Z,0
2023-05-15T02:10:59.518Z,0
2023-05-15T02:12:01.546Z,0
2023-05-15T02:13:03.518Z,0
2023-05-15T02:14:05.502Z,0
2023-05-15T02:15:07.042Z,0
2023-05-15T02:16:08.492Z,0
2023-05-15T02:17:10.078Z,0
2023-05-15T02:18:12.024Z,0
2023-05-15T02:19:14.067Z,0
2023-05-15T02:20:46.944Z,0
2023-05-15T02:21:48.440Z,0
2023-05-15T02:22:50.004Z,0
2023-05-15T02:23:51.429Z,0
2023-05-15T02:24:53.131Z,0
2023-05-15T02:25:54.940Z,0
2023-05-15T02:26:56.563Z,0
2023-05-15T02:27:57.535Z,0
2023-05-15T02:28:59.618Z,0
2023-05-15T02:30:01.558Z,0
2023-05-15T02:31:03.432Z,0
2023-05-15T02:32:04.598Z,0
2023-05-15T02:33:06.609Z,0
2023-05-15T02:34:08.510Z,0
2023-05-15T02:35:10.646Z,0
2023-05-15T02:36:13.723Z,0
2023-05-15T02:37:15.089Z,0
2023-05-15T02:38:48.611Z,0
2023-05-15T02:39:49.690Z,0
2023-05-15T02:40:51.517Z,0
2023-05-15T02:41:53.504Z,0
2023-05-15T02:42:54.975Z,0
2023-05-15T02:43:56.538Z,0
2023-05-15T02:44:57.702Z,0
2023-05-15T02:45:59.633Z,0
2023-05-15T02:47:01.590Z,0
2023-05-15T02:48:03.652Z,0
2023-05-15T02:49:05.522Z,0
2023-05-15T02:50:07.007Z,0
2023-05-15T02:51:08.091Z,0
2023-05-15T02:52:09.092Z,0
2023-05-15T02:53:10.952Z,0
2023-05-15T02:54:13.149Z,0
2023-05-15T02:55:16.044Z,0
2023-05-15T02:56:48.484Z,0
2023-05-15T02:57:50.445Z,0
2023-05-15T02:58:52.193Z,0
2023-05-15T02:59:54.058Z,0
2023-05-15T03:00:56.083Z,0
2023-05-15T03:01:58.030Z,0
2023-05-15T03:02:59.998Z,0
2023-05-15T03:04:01.487Z,0
2023-05-15T03:05:03.049Z,0
2023-05-15T03:06:04.999Z,0
2023-05-15T03:07:06.967Z,0
2023-05-15T03:08:08.484Z,0
2023-05-15T03:09:10.005Z,0
2023-05-15T03:10:11.541Z,0
2023-05-15T03:11:43.583Z,0
2023-05-15T03:12:45.528Z,0
2023-05-15T03:13:47.428Z,0
2023-05-15T03:14:48.910Z,0
2023-05-15T03:15:50.537Z,0
2023-05-15T03:16:52.591Z,0
2023-05-15T03:17:54.501Z,0
2023-05-15T03:18:55.516Z,0
2023-05-15T03:19:57.484Z,0
2023-05-15T03:20:58.980Z,0
2023-05-15T03:22:00.585Z,0
2023-05-15T03:23:02.566Z,0
2023-05-15T03:24:04.356Z,0
2023-05-15T03:25:05.884Z,0
2023-05-15T03:26:07.483Z,0
2023-05-15T03:27:09.997Z,0
2023-05-15T03:28:10.984Z,0
2023-05-15T03:29:12.951Z,0
2023-05-15T03:30:14.479Z,0
2023-05-15T03:31:47.204Z,0
2023-05-15T03:32:48.991Z,0
2023-05-15T03:33:50.530Z,0
2023-05-15T03:34:52.581Z,0
2023-05-15T03:35:54.495Z,0
2023-05-15T03:36:56.040Z,0
2023-05-15T03:37:57.635Z,0
2023-05-15T03:38:59.506Z,0
2023-05-15T03:40:01.014Z,4
2023-05-15T03:41:02.793Z,0
2023-05-15T03:42:04.548Z,0
2023-05-15T03:43:06.510Z,4
2023-05-15T03:44:08.540Z,4
2023-05-15T03:45:10.469Z,4
2023-05-15T03:46:12.483Z,4
2023-05-15T03:47:13.824Z,8
2023-05-15T03:48:46.046Z,8
2023-05-15T03:49:47.028Z,8
2023-05-15T03:50:48.493Z,8
2023-05-15T03:51:50.039Z,8
2023-05-15T03:52:51.156Z,12
2023-05-15T03:53:52.982Z,12
2023-05-15T03:54:54.534Z,12
2023-05-15T03:55:56.570Z,16
2023-05-15T03:56:58.477Z,16
2023-05-15T03:57:59.661Z,20
2023-05-15T03:59:01.587Z,20
2023-05-15T04:00:03.463Z,20
2023-05-15T04:01:05.040Z,20
2023-05-15T04:02:06.579Z,24
2023-05-15T04:03:08.687Z,24
2023-05-15T04:04:09.544Z,28
2023-05-15T04:05:12.549Z,28
2023-05-15T04:06:14.010Z,32
2023-05-15T04:07:45.994Z,32
2023-05-15T04:08:48.138Z,32
2023-05-15T04:09:49.987Z,36
2023-05-15T04:10:52.069Z,36
2023-05-15T04:11:53.913Z,36
2023-05-15T04:12:55.464Z,40
2023-05-15T04:13:57.049Z,44
2023-05-15T04:14:59.056Z,48
2023-05-15T04:16:01.024Z,48
2023-05-15T04:17:02.467Z,52
2023-05-15T04:18:04.108Z,52
2023-05-15T04:19:06.176Z,56
2023-05-15T04:20:08.022Z,60
2023-05-15T04:21:09.997Z,60
2023-05-15T04:22:12.012Z,64
2023-05-15T04:23:13.973Z,68
2023-05-15T04:24:46.629Z,72
2023-05-15T04:25:48.550Z,72
2023-05-15T04:26:50.634Z,72
2023-05-15T04:27:52.438Z,76
2023-05-15T04:29:03.350Z,80
2023-05-15T04:29:55.597Z,80
2023-05-15T04:30:57.494Z,76
2023-05-15T04:31:59.056Z,72
2023-05-15T04:33:00.996Z,68
2023-05-15T04:34:02.581Z,68
2023-05-15T04:35:04.552Z,68
2023-05-15T04:36:06.552Z,68
2023-05-15T04:37:08.583Z,64
2023-05-15T04:38:09.568Z,68
2023-05-15T04:39:11.514Z,64
2023-05-15T04:40:13.104Z,64
2023-05-15T04:41:46.545Z,68
2023-05-15T04:42:48.576Z,72
2023-05-15T04:43:50.454Z,80
2023-05-15T04:44:51.959Z,88
2023-05-15T04:45:53.529Z,96
2023-05-15T04:46:55.129Z,108
2023-05-15T04:47:57.088Z,112
2023-05-15T04:48:58.550Z,116
2023-05-15T04:50:00.638Z,116
2023-05-15T04:51:02.626Z,116
2023-05-15T04:52:04.632Z,116
2023-05-15T04:53:07.503Z,116
2023-05-15T04:54:09.525Z,124
2023-05-15T04:55:11.548Z,132
2023-05-15T04:56:13.028Z,156
2023-05-15T04:57:45.651Z,176
2023-05-15T04:58:47.484Z,188
2023-05-15T04:59:48.930Z,200
2023-05-15T05:00:50.569Z,208
2023-05-15T05:01:52.780Z,220
2023-05-15T05:02:54.746Z,220
2023-05-15T05:03:56.651Z,220
2023-05-15T05:04:58.553Z,224
2023-05-15T05:06:00.464Z,232
2023-05-15T05:07:02.080Z,248
2023-05-15T05:08:04.239Z,252
2023-05-15T05:09:06.017Z,280
2023-05-15T05:10:08.006Z,300
2023-05-15T05:11:09.549Z,328
2023-05-15T05:12:11.518Z,352
2023-05-15T05:13:13.004Z,380
2023-05-15T05:14:45.600Z,400
2023-05-15T05:15:47.559Z,416
2023-05-15T05:16:48.954Z,424
2023-05-15T05:17:50.588Z,372
2023-05-15T05:18:52.625Z,380
2023-05-15T05:19:54.553Z,384
2023-05-15T05:20:56.558Z,388
2023-05-15T05:21:58.573Z,396
2023-05-15T05:23:00.070Z,404
2023-05-15T05:24:02.065Z,408
2023-05-15T05:25:04.216Z,428
2023-05-15T05:26:06.463Z,476
2023-05-15T05:27:08.105Z,480
2023-05-15T05:28:10.008Z,456
2023-05-15T05:29:12.026Z,448
2023-05-15T05:30:45.064Z,440
2023-05-15T05:31:47.167Z,428
2023-05-15T05:32:49.029Z,416
2023-05-15T05:33:50.632Z,408
2023-05-15T05:34:52.629Z,412
2023-05-15T05:35:54.472Z,436
2023-05-15T05:36:56.010Z,432
2023-05-15T05:37:57.442Z,444
2023-05-15T05:38:59.082Z,464
2023-05-15T05:40:01.076Z,484
2023-05-15T05:41:04.460Z,512
2023-05-15T05:42:06.387Z,536
2023-05-15T05:43:09.023Z,548
2023-05-15T05:44:11.839Z,576
2023-05-15T05:45:45.325Z,664
2023-05-15T05:46:47.154Z,644
2023-05-15T05:47:49.022Z,656
2023-05-15T05:48:50.452Z,668
2023-05-15T05:49:52.126Z,676
2023-05-15T05:50:54.040Z,688
2023-05-15T05:51:56.035Z,732
2023-05-15T05:52:57.503Z,768
2023-05-15T05:53:59.050Z,752
2023-05-15T05:55:01.056Z,756
2023-05-15T05:56:03.133Z,764
2023-05-15T05:57:05.004Z,756
2023-05-15T05:59:09.014Z,744
2023-05-15T06:00:11.023Z,740
2023-05-15T06:01:13.891Z,720
2023-05-15T06:02:46.176Z,716
2023-05-15T06:03:48.297Z,708
2023-05-15T06:04:50.350Z,680
2023-05-15T06:05:52.045Z,668
2023-05-15T06:06:54.045Z,668
2023-05-15T06:07:56.030Z,652
2023-05-15T06:08:58.148Z,632
2023-05-15T06:09:59.928Z,616
2023-05-15T06:11:01.541Z,592
2023-05-15T06:12:03.600Z,576
2023-05-15T06:13:06.071Z,560
2023-05-15T06:14:08.013Z,544
2023-05-15T06:15:09.045Z,548
2023-05-15T06:16:11.153Z,604
2023-05-15T06:17:45.054Z,640
2023-05-15T06:18:47.151Z,688
2023-05-15T06:19:48.984Z,740
2023-05-15T06:20:50.504Z,776
2023-05-15T06:21:52.156Z,780
2023-05-15T06:22:54.012Z,776
2023-05-15T06:23:55.935Z,764
2023-05-15T06:24:57.977Z,732
2023-05-15T06:25:59.486Z,704
2023-05-15T06:27:00.633Z,676
2023-05-15T06:28:02.692Z,656
2023-05-15T06:29:05.752Z,648
2023-05-15T06:30:07.512Z,640
2023-05-15T06:31:09.094Z,652
2023-05-15T06:32:11.038Z,684
2023-05-15T06:33:43.783Z,664
2023-05-15T06:34:45.521Z,632
2023-05-15T06:35:46.969Z,620
2023-05-15T06:36:48.544Z,624
2023-05-15T06:37:50.564Z,632
2023-05-15T06:38:52.529Z,636
2023-05-15T06:39:54.575Z,652
2023-05-15T06:40:56.472Z,668
2023-05-15T06:41:57.982Z,652
2023-05-15T06:42:59.023Z,660
2023-05-15T06:44:01.106Z,768
2023-05-15T06:45:03.047Z,668
2023-05-15T06:46:05.111Z,644
2023-05-15T06:47:06.654Z,612
2023-05-15T06:48:08.569Z,640
2023-05-15T06:49:10.608Z,624
2023-05-15T06:50:12.549Z,664
2023-05-15T06:51:44.923Z,788
2023-05-15T06:52:46.430Z,824
2023-05-15T06:53:48.011Z,780
2023-05-15T06:54:49.776Z,792
2023-05-15T06:55:51.556Z,688
2023-05-15T06:56:53.496Z,700
2023-05-15T06:57:54.941Z,728
2023-05-15T06:58:56.628Z,784
2023-05-15T06:59:58.568Z,784
2023-05-15T07:01:01.343Z,772
2023-05-15T07:02:02.632Z,768
2023-05-15T07:03:04.515Z,748
2023-05-15T07:04:06.212Z,724
2023-05-15T07:05:08.070Z,712
2023-05-15T07:06:10.053Z,840
2023-05-15T07:07:43.461Z,780
2023-05-15T07:08:45.017Z,748
2023-05-15T07:09:47.076Z,740
2023-05-15T07:10:49.116Z,780
2023-05-15T07:11:51.040Z,936
2023-05-15T07:12:53.039Z,944
2023-05-15T07:13:54.473Z,952
2023-05-15T07:14:56.064Z,960
2023-05-15T07:15:58.045Z,924
2023-05-15T07:17:00.077Z,948
2023-05-15T07:18:02.408Z,976
2023-05-15T07:19:04.175Z,968
2023-05-15T07:20:06.451Z,964
2023-05-15T07:21:09.041Z,1028
2023-05-15T07:22:11.055Z,1004
2023-05-15T07:23:43.851Z,940
2023-05-15T07:24:45.590Z,928
2023-05-15T07:25:47.836Z,976
2023-05-15T07:26:57.998Z,952
2023-05-15T07:27:51.552Z,880
2023-05-15T07:28:53.426Z,896
2023-05-15T07:29:55.180Z,844
2023-05-15T07:30:57.141Z,820
2023-05-15T07:31:59.098Z,848
2023-05-15T07:33:00.760Z,944
2023-05-15T07:34:02.504Z,1004
2023-05-15T07:35:04.501Z,1040
2023-05-15T07:36:05.570Z,984
2023-05-15T07:37:07.252Z,1084
2023-05-15T07:38:10.093Z,1128
2023-05-15T07:39:12.016Z,988
2023-05-15T07:40:44.385Z,1024
2023-05-15T07:41:45.416Z,1064
2023-05-15T07:42:46.385Z,1080
2023-05-15T07:43:47.913Z,1120
2023-05-15T07:44:49.698Z,1120
2023-05-15T07:45:50.987Z,1128
2023-05-15T07:46:52.580Z,1060
2023-05-15T07:47:54.498Z,1048
2023-05-15T07:48:55.993Z,1124
2023-05-15T07:49:57.473Z,1112
2023-05-15T07:50:58.961Z,1096
2023-05-15T07:52:00.486Z,1104
2023-05-15T07:53:01.982Z,1088
2023-05-15T07:54:03.473Z,1160
2023-05-15T07:55:05.034Z,1268
2023-05-15T07:56:06.504Z,1408
2023-05-15T07:57:08.004Z,1484
2023-05-15T07:58:09.506Z,1532
2023-05-15T07:59:11.552Z,1696
2023-05-15T08:00:43.373Z,1588
2023-05-15T08:01:44.936Z,1612
2023-05-15T08:02:46.657Z,1652
2023-05-15T08:03:48.257Z,1716
2023-05-15T08:04:49.996Z,1604
2023-05-15T08:05:51.362Z,1724
2023-05-15T08:06:53.089Z,1728
2023-05-15T08:07:55.002Z,1632
2023-05-15T08:08:56.577Z,1532
2023-05-15T08:09:58.476Z,1476
2023-05-15T08:10:59.871Z,1380
2023-05-15T08:12:01.449Z,1364
2023-05-15T08:13:02.950Z,1380
2023-05-15T08:14:04.671Z,1448
2023-05-15T08:15:06.876Z,1448
2023-05-15T08:16:08.479Z,1304
2023-05-15T08:17:09.992Z,1276
2023-05-15T08:18:11.999Z,1144
2023-05-15T08:19:44.243Z,1104
2023-05-15T08:20:46.071Z,1084
2023-05-15T08:21:47.891Z,1088
2023-05-15T08:22:49.369Z,1140
2023-05-15T08:23:51.013Z,1188
2023-05-15T08:24:52.592Z,1208
2023-05-15T08:25:53.517Z,1188
2023-05-15T08:26:55.460Z,1208
2023-05-15T08:27:56.906Z,1268
2023-05-15T08:28:59.029Z,1332
2023-05-15T08:30:00.539Z,1328
2023-05-15T08:31:02.038Z,1336
2023-05-15T08:32:03.517Z,1320
2023-05-15T08:33:05.040Z,1232
2023-05-15T08:34:06.561Z,1104
2023-05-15T08:35:08.044Z,1040
2023-05-15T08:36:09.701Z,1024
2023-05-15T08:37:11.991Z,1012
2023-05-15T08:38:43.550Z,1000
2023-05-15T08:39:45.603Z,984
2023-05-15T08:40:46.698Z,924
2023-05-15T08:41:48.574Z,872
2023-05-15T08:42:49.673Z,880
2023-05-15T08:43:51.464Z,856
2023-05-15T08:44:53.092Z,828
2023-05-15T08:45:55.168Z,780
2023-05-15T08:46:57.096Z,744
2023-05-15T08:47:59.076Z,724
2023-05-15T08:49:00.519Z,724
2023-05-15T08:50:02.006Z,712
2023-05-15T08:51:03.585Z,720
2023-05-15T08:52:06.500Z,716
2023-05-15T08:53:08.024Z,696
2023-05-15T08:54:09.499Z,680
2023-05-15T08:55:11.536Z,724
2023-05-15T08:56:44.356Z,756
2023-05-15T08:57:46.022Z,780
2023-05-15T08:58:48.133Z,784
2023-05-15T08:59:49.122Z,816
2023-05-15T09:00:50.981Z,824
2023-05-15T09:01:52.587Z,840
2023-05-15T09:02:54.700Z,864
2023-05-15T09:03:56.730Z,900
2023-05-15T09:04:58.601Z,944
2023-05-15T09:06:00.540Z,1004
2023-05-15T09:07:02.604Z,1088
2023-05-15T09:08:04.574Z,1196
2023-05-15T09:09:06.560Z,1420
2023-05-15T09:10:07.926Z,1520
2023-05-15T09:11:09.589Z,1672
2023-05-15T09:12:43.201Z,1616
2023-05-15T09:13:45.134Z,1796
2023-05-15T09:14:47.048Z,1852
2023-05-15T09:15:49.063Z,1780
2023-05-15T09:16:50.226Z,1688
2023-05-15T09:17:52.101Z,1652
2023-05-15T09:18:53.581Z,1628
2023-05-15T09:19:55.021Z,1616
2023-05-15T09:20:56.511Z,1620
2023-05-15T09:21:58.053Z,1620
2023-05-15T09:23:00.137Z,1624
2023-05-15T09:24:02.263Z,1620
2023-05-15T09:25:04.193Z,1560
2023-05-15T09:26:05.985Z,1612
2023-05-15T09:27:07.491Z,1676
2023-05-15T09:28:09.062Z,1720
2023-05-15T09:29:11.034Z,1564
2023-05-15T09:30:43.027Z,1436
2023-05-15T09:31:45.092Z,1344
2023-05-15T09:32:46.552Z,1464
2023-05-15T09:33:47.731Z,1620
2023-05-15T09:34:49.551Z,1552
2023-05-15T09:35:51.492Z,1320
2023-05-15T09:36:53.055Z,1112
2023-05-15T09:37:54.500Z,980
2023-05-15T09:38:56.161Z,912
2023-05-15T09:39:58.070Z,840
2023-05-15T09:41:00.101Z,808
2023-05-15T09:42:02.080Z,812
2023-05-15T09:43:04.187Z,844
2023-05-15T09:44:06.100Z,896
2023-05-15T09:45:07.967Z,952
2023-05-15T09:46:10.116Z,1156
2023-05-15T09:47:41.676Z,1252
2023-05-15T09:48:43.606Z,1292
2023-05-15T09:49:45.634Z,1352
2023-05-15T09:50:47.776Z,1412
2023-05-15T09:51:49.488Z,1456
2023-05-15T09:52:51.045Z,1524
2023-05-15T09:53:53.034Z,1584
2023-05-15T09:54:55.072Z,1648
2023-05-15T09:55:56.170Z,1692
